Latest Coastal Weather Observations for Browse Island

IDD60701

Issued at 12:21 pm CST Thursday 28 July 2016 (issued every 10 minutes, with the page automatically refreshed every 10 minutes)

About coastal observations | Map of coastal stations | Coastal observations for NT | Marine services | Other Formats
Station Details ID: 200784 Name: BROWSE ISLAND Lat: -14.11 Lon: 123.55 Height: 3.7 m
Data from the previous 72 hours. | See also: Recent months at Browse Island
Date/Time
CST
Temp
°C
Wind Pressure Rain since
9am
mm
Weather Cloud Vis
km
Sea
Height
m
Swell
Dir  Spd
kts
Gust
kts
hPa Trend Height
m
Period
s
Dir
28/12:00pm 27.4 E 18 24 1015.7 - - - - - - - - -
28/11:30am 27.5 E 19 23 1016.0 - - - - - - - - -
28/11:00am 27.6 E 20 24 1016.2 - - - - - - - - -
28/10:30am 27.6 E 20 25 1016.2 - - - - - - - - -
28/10:00am 27.8 ESE 18 23 1016.5 - - - - - - - - -
28/09:30am 28.0 ESE 20 24 1016.2 - - - - - - - - -
28/09:00am 27.9 ESE 19 23 1016.0 - - - - - - - - -
28/08:30am 28.1 ESE 22 27 1015.8 - - - - - - - - -
28/08:00am 28.1 ESE 21 26 1015.4 - - - - - - - - -
28/07:30am 27.7 ESE 18 22 1015.3 - - - - - - - - -
28/07:00am 27.8 E 17 21 1014.9 - - - - - - - - -
28/06:30am 28.0 E 17 21 1014.6 - - - - - - - - -
28/06:00am 27.5 E 15 18 1014.4 - - - - - - - - -
28/05:30am 27.4 E 14 17 1014.5 - - - - - - - - -
28/05:00am 27.5 ENE 14 17 1014.4 - - - - - - - - -
28/04:30am 27.5 ENE 15 19 1014.3 - - - - - - - - -
28/04:00am 27.5 ENE 14 18 1014.2 - - - - - - - - -
28/03:30am 27.5 ENE 14 17 1014.4 - - - - - - - - -
28/03:00am 27.5 ENE 13 16 1014.5 - - - - - - - - -
28/02:30am 27.7 ENE 14 17 1014.6 - - - - - - - - -
28/02:00am 27.5 ENE 13 15 1014.6 - - - - - - - - -
28/01:30am 27.5 NE 14 16 1014.7 - - - - - - - - -
28/01:00am 27.6 ENE 15 18 1014.8 - - - - - - - - -
28/12:30am 27.5 NE 14 17 1014.8 - - - - - - - - -
28/12:00am 27.5 NE 13 16 1014.9 - - - - - - - - -
 
Date/Time
CST
Temp
°C
Wind Pressure Rain since
9am
mm
Weather Cloud Vis
km
Sea
Height
m
Swell
Dir  Spd
kts
Gust
kts
hPa Trend Height
m
Period
s
Dir
27/11:30pm 27.5 NE 13 16 1015.0 - - - - - - - - -
27/11:00pm 27.6 NE 15 18 1014.8 - - - - - - - - -
27/10:30pm 27.9 NE 15 17 1014.7 - - - - - - - - -
27/10:00pm 28.0 NE 15 18 1014.7 - - - - - - - - -
27/09:30pm 27.9 NE 15 17 1014.5 - - - - - - - - -
27/09:00pm 28.1 NE 16 19 1014.2 - - - - - - - - -
27/08:30pm 28.0 ENE 15 17 1013.8 - - - - - - - - -
27/08:00pm 28.0 ENE 14 17 1013.5 - - - - - - - - -
27/07:30pm 28.0 ENE 13 15 1013.2 - - - - - - - - -
27/07:00pm 28.1 ENE 15 18 1012.9 - - - - - - - - -
27/06:30pm 28.1 ENE 15 18 1012.6 - - - - - - - - -
27/06:00pm 28.0 ENE 16 19 1012.4 - - - - - - - - -
27/05:30pm 28.2 ENE 18 21 1012.2 - - - - - - - - -
27/05:00pm 28.2 ENE 17 20 1012.2 - - - - - - - - -
27/04:30pm 28.4 ENE 17 20 1012.2 - - - - - - - - -
27/04:00pm 28.4 E 18 21 1012.2 - - - - - - - - -
27/03:30pm 28.8 E 17 21 1012.2 - - - - - - - - -
27/03:00pm 29.2 E 16 20 1012.3 - - - - - - - - -
27/02:30pm 29.4 E 15 20 1012.6 - - - - - - - - -
27/02:00pm 28.7 E 16 20 1012.7 - - - - - - - - -
27/01:30pm 28.5 E 15 18 1013.1 - - - - - - - - -
27/01:00pm 28.7 E 14 19 1013.5 - - - - - - - - -
27/12:30pm 28.8 ENE 11 14 1013.8 - - - - - - - - -
27/12:00pm 28.6 ENE 12 15 1014.2 - - - - - - - - -
27/11:30am 29.1 E 9 11 1014.4 - - - - - - - - -
27/11:00am 29.0 E 8 10 1014.6 - - - - - - - - -
27/10:30am 28.4 E 8 10 1014.6 - - - - - - - - -
27/10:00am 28.5 E 8 10 1014.5 - - - - - - - - -
27/09:30am 28.3 E 7 8 1014.3 - - - - - - - - -
27/09:00am 27.9 ENE 6 8 1014.1 - - - - - - - - -
27/08:30am 27.4 E 6 7 1013.7 - - - - - - - - -
27/08:00am 27.0 ENE 6 8 1013.6 - - - - - - - - -
27/07:30am 26.8 ENE 7 8 1013.4 - - - - - - - - -
27/07:00am 26.9 ENE 7 8 1013.2 - - - - - - - - -
27/06:30am 26.8 ENE 4 5 1012.9 - - - - - - - - -
27/06:00am 26.8 ENE 5 6 1012.8 - - - - - - - - -
27/05:30am 26.7 ENE 6 8 1012.5 - - - - - - - - -
27/05:00am 26.7 E 5 6 1012.5 - - - - - - - - -
27/04:30am 26.8 ENE 5 7 1012.5 - - - - - - - - -
27/04:00am 26.6 E 5 6 1012.4 - - - - - - - - -
27/03:30am 26.6 E 5 7 1012.5 - - - - - - - - -
27/03:00am 26.7 ENE 5 7 1012.6 - - - - - - - - -
27/02:30am 26.8 ESE 5 6 1012.9 - - - - - - - - -
27/02:00am 26.7 ENE 5 6 1012.9 - - - - - - - - -
27/01:30am 26.7 E 4 4 1013.1 - - - - - - - - -
27/01:00am 26.7 ESE 3 4 1013.2 - - - - - - - - -
27/12:30am 26.7 SE 1 4 1013.4 - - - - - - - - -
27/12:00am 26.5 CALM 0 0 1013.5 - - - - - - - - -
 
Date/Time
CST
Temp
°C
Wind Pressure Rain since
9am
mm
Weather Cloud Vis
km
Sea
Height
m
Swell
Dir  Spd
kts
Gust
kts
hPa Trend Height
m
Period
s
Dir
26/11:30pm 26.7 CALM 0 0 1013.5 - - - - - - - - -
26/11:00pm 27.0 CALM 0 0 1013.6 - - - - - - - - -
26/10:30pm 27.1 WNW 3 4 1013.3 - - - - - - - - -
26/10:00pm 27.2 W 4 4 1013.3 - - - - - - - - -
26/09:30pm 27.3 WNW 4 5 1013.1 - - - - - - - - -
26/09:00pm 27.4 W 4 4 1012.9 - - - - - - - - -
26/08:30pm 27.4 WSW 3 4 1012.6 - - - - - - - - -
26/08:00pm 27.5 SSW 4 5 1012.4 - - - - - - - - -
26/07:30pm 27.5 SSE 3 4 1012.3 - - - - - - - - -
26/07:00pm 27.7 SE 4 6 1011.9 - - - - - - - - -
26/06:30pm 27.8 S 7 8 1011.6 - - - - - - - - -
26/06:00pm 28.1 SE 5 6 1011.4 - - - - - - - - -
26/05:30pm 28.8 ESE 5 6 1011.0 - - - - - - - - -
26/05:00pm 29.1 E 5 7 1011.0 - - - - - - - - -
26/04:30pm 29.1 ENE 6 7 1010.8 - - - - - - - - -
26/04:00pm 28.5 ESE 7 8 1011.0 - - - - - - - - -
26/03:30pm 29.0 SE 7 9 1011.1 - - - - - - - - -
26/03:00pm 28.6 SSE 7 8 1011.3 - - - - - - - - -
26/02:30pm 28.8 SSE 7 8 1011.5 - - - - - - - - -
26/02:00pm 28.5 SSE 7 8 1011.8 - - - - - - - - -
26/01:30pm 28.9 S 7 9 1012.2 - - - - - - - - -
26/01:00pm 28.4 S 7 9 1012.6 - - - - - - - - -
26/12:30pm 28.3 S 8 9 1013.0 - - - - - - - - -
26/12:00pm 28.1 S 7 9 1013.3 - - - - - - - - -
26/11:30am 28.6 S 6 7 1013.6 - - - - - - - - -
26/11:00am 27.6 SSW 7 8 1013.9 - - - - - - - - -
26/10:30am 27.5 SSW 6 8 1013.9 - - - - - - - - -
26/10:00am 27.2 SSW 8 9 1013.8 - - - - - - - - -
26/09:30am 27.2 SSW 8 10 1013.7 - - - - - - - - -
26/09:00am 27.2 CALM 0 0 1013.5 - - - - - - - - -
26/08:30am 27.0 CALM 0 0 1013.2 - - - - - - - - -
26/08:00am 26.9 CALM 0 0 1012.9 - - - - - - - - -
26/07:30am 26.9 SSE 3 4 1012.8 - - - - - - - - -
26/07:00am 26.9 SE 3 4 1012.7 - - - - - - - - -
26/06:30am 26.9 E 3 4 1012.4 - - - - - - - - -
26/06:00am 26.8 E 4 4 1012.3 - - - - - - - - -
26/05:30am 27.0 ENE 4 5 1012.4 - - - - - - - - -
26/05:00am 27.1 ESE 5 6 1012.3 - - - - - - - - -
26/04:30am 27.2 ESE 5 6 1012.2 - - - - - - - - -
26/04:00am 27.2 ESE 5 6 1012.2 - - - - - - - - -
26/03:30am 27.2 ESE 5 5 1012.2 - - - - - - - - -
26/03:00am 27.3 SE 5 6 1012.4 - - - - - - - - -
26/02:30am 27.2 ESE 3 4 1012.8 - - - - - - - - -
26/02:00am 27.1 ENE 4 5 1013.0 - - - - - - - - -
26/01:30am 27.3 E 6 6 1013.1 - - - - - - - - -
26/01:00am 27.3 E 5 6 1013.3 - - - - - - - - -
26/12:30am 27.2 ESE 4 5 1013.3 - - - - - - - - -
26/12:00am 27.4 E 5 5 1013.4 - - - - - - - - -
 
Date/Time
CST
Temp
°C
Wind Pressure Rain since
9am
mm
Weather Cloud Vis
km
Sea
Height
m
Swell
Dir  Spd
kts
Gust
kts
hPa Trend Height
m
Period
s
Dir
25/11:30pm 27.3 CALM 0 4 1013.6 - - - - - - - - -
25/11:00pm 27.3 CALM 0 0 1013.5 - - - - - - - - -
25/10:30pm 27.1 CALM 0 0 1013.1 - - - - - - - - -
25/10:00pm 27.3 CALM 0 0 1012.8 - - - - - - - - -
25/09:30pm 27.4 CALM 0 0 1012.8 - - - - - - - - -
25/09:00pm 27.5 SSE 4 4 1012.6 - - - - - - - - -
25/08:30pm 27.8 SSE 5 5 1012.3 - - - - - - - - -
25/08:00pm 27.8 SSE 6 6 1011.9 - - - - - - - - -
25/07:30pm 27.8 SE 5 5 1011.7 - - - - - - - - -
25/07:00pm 27.9 SE 5 6 1011.4 - - - - - - - - -
25/06:30pm 28.3 SE 5 7 1011.2 - - - - - - - - -
25/06:00pm 28.5 SE 6 6 1011.0 - - - - - - - - -
25/05:30pm 28.8 SE 6 7 1010.8 - - - - - - - - -
25/05:00pm 28.9 SE 6 7 1010.7 - - - - - - - - -
25/04:30pm 29.4 ESE 7 9 1010.5 - - - - - - - - -
25/04:00pm 29.7 E 7 8 1010.5 - - - - - - - - -
25/03:30pm 29.4 ESE 7 8 1010.6 - - - - - - - - -
25/03:00pm 29.6 ESE 7 8 1010.9 - - - - - - - - -
25/02:30pm 29.9 ESE 8 9 1011.3 - - - - - - - - -
25/02:00pm 29.6 ESE 8 9 1011.7 - - - - - - - - -

Other Formats:

Comma delimited format used in spreadsheet applications
http://www.bom.gov.au/fwo/IDD60701/IDD60701.94103.axf

JavaScript Object Notation format (JSON) in row-major order
http://www.bom.gov.au/fwo/IDD60701/IDD60701.94103.json